sensor_id;sensor_type;location;lat;lon;timestamp;temperature;humidity
11989;DHT22;6054;50.966;7.094;2022-11-20T00:00:23;12.10;43.40
11989;DHT22;6054;50.966;7.094;2022-11-20T00:02:50;12.10;44.00
11989;DHT22;6054;50.966;7.094;2022-11-20T00:05:17;12.10;43.80
11989;DHT22;6054;50.966;7.094;2022-11-20T00:07:43;12.10;43.80
11989;DHT22;6054;50.966;7.094;2022-11-20T00:10:11;12.10;44.10
11989;DHT22;6054;50.966;7.094;2022-11-20T00:12:38;12.10;43.90
11989;DHT22;6054;50.966;7.094;2022-11-20T00:15:06;12.10;43.90
11989;DHT22;6054;50.966;7.094;2022-11-20T00:17:34;12.10;44.50
11989;DHT22;6054;50.966;7.094;2022-11-20T00:20:01;12.10;44.00
11989;DHT22;6054;50.966;7.094;2022-11-20T00:22:27;12.10;43.90
11989;DHT22;6054;50.966;7.094;2022-11-20T00:24:54;12.10;43.70
11989;DHT22;6054;50.966;7.094;2022-11-20T00:27:22;12.10;43.80
11989;DHT22;6054;50.966;7.094;2022-11-20T00:29:49;12.10;44.10
11989;DHT22;6054;50.966;7.094;2022-11-20T00:32:16;12.10;44.20
11989;DHT22;6054;50.966;7.094;2022-11-20T00:34:44;12.10;44.20
11989;DHT22;6054;50.966;7.094;2022-11-20T00:37:11;12.10;44.30
11989;DHT22;6054;50.966;7.094;2022-11-20T00:39:37;12.10;44.10
11989;DHT22;6054;50.966;7.094;2022-11-20T00:42:04;12.00;43.60
11989;DHT22;6054;50.966;7.094;2022-11-20T00:44:31;12.10;44.40
11989;DHT22;6054;50.966;7.094;2022-11-20T00:46:58;12.00;43.80
11989;DHT22;6054;50.966;7.094;2022-11-20T00:49:24;12.00;43.30
11989;DHT22;6054;50.966;7.094;2022-11-20T00:51:52;12.00;43.20
11989;DHT22;6054;50.966;7.094;2022-11-20T00:54:19;12.00;43.30
11989;DHT22;6054;50.966;7.094;2022-11-20T00:56:46;12.10;43.10
11989;DHT22;6054;50.966;7.094;2022-11-20T00:59:13;11.90;43.40
11989;DHT22;6054;50.966;7.094;2022-11-20T01:01:40;12.00;43.50
11989;DHT22;6054;50.966;7.094;2022-11-20T01:04:06;11.90;43.40
11989;DHT22;6054;50.966;7.094;2022-11-20T01:06:35;11.90;43.60
11989;DHT22;6054;50.966;7.094;2022-11-20T01:09:05;11.90;44.10
11989;DHT22;6054;50.966;7.094;2022-11-20T01:11:34;11.90;44.10
11989;DHT22;6054;50.966;7.094;2022-11-20T01:14:03;11.90;44.10
11989;DHT22;6054;50.966;7.094;2022-11-20T01:16:32;11.90;44.00
11989;DHT22;6054;50.966;7.094;2022-11-20T01:19:01;11.90;43.90
11989;DHT22;6054;50.966;7.094;2022-11-20T01:21:30;11.90;43.90
11989;DHT22;6054;50.966;7.094;2022-11-20T01:23:59;11.90;43.60
11989;DHT22;6054;50.966;7.094;2022-11-20T01:26:29;12.10;44.00
11989;DHT22;6054;50.966;7.094;2022-11-20T01:28:56;11.90;43.80
11989;DHT22;6054;50.966;7.094;2022-11-20T01:31:25;11.90;43.80
11989;DHT22;6054;50.966;7.094;2022-11-20T01:33:54;11.80;43.70
11989;DHT22;6054;50.966;7.094;2022-11-20T01:36:23;11.90;43.60
11989;DHT22;6054;50.966;7.094;2022-11-20T01:38:51;12.00;43.90
11989;DHT22;6054;50.966;7.094;2022-11-20T01:41:18;11.80;43.50
11989;DHT22;6054;50.966;7.094;2022-11-20T01:44:02;11.80;43.40
11989;DHT22;6054;50.966;7.094;2022-11-20T01:46:29;12.10;44.00
11989;DHT22;6054;50.966;7.094;2022-11-20T01:48:58;11.80;43.70
11989;DHT22;6054;50.966;7.094;2022-11-20T01:51:28;11.80;43.60
11989;DHT22;6054;50.966;7.094;2022-11-20T01:53:58;11.80;43.60
11989;DHT22;6054;50.966;7.094;2022-11-20T01:56:27;11.80;43.80
11989;DHT22;6054;50.966;7.094;2022-11-20T01:58:58;11.80;43.80
11989;DHT22;6054;50.966;7.094;2022-11-20T02:01:27;11.80;43.90
11989;DHT22;6054;50.966;7.094;2022-11-20T02:03:54;11.80;43.60
11989;DHT22;6054;50.966;7.094;2022-11-20T02:06:24;11.80;43.40
11989;DHT22;6054;50.966;7.094;2022-11-20T02:09:03;11.80;43.90
11989;DHT22;6054;50.966;7.094;2022-11-20T02:11:30;11.80;43.40
11989;DHT22;6054;50.966;7.094;2022-11-20T02:13:57;11.80;43.40
11989;DHT22;6054;50.966;7.094;2022-11-20T02:16:25;11.80;43.80
11989;DHT22;6054;50.966;7.094;2022-11-20T02:18:55;11.90;44.10
11989;DHT22;6054;50.966;7.094;2022-11-20T02:21:35;11.90;44.20
11989;DHT22;6054;50.966;7.094;2022-11-20T02:24:07;11.90;44.50
11989;DHT22;6054;50.966;7.094;2022-11-20T02:26:46;11.90;44.50
11989;DHT22;6054;50.966;7.094;2022-11-20T02:29:17;11.90;44.30
11989;DHT22;6054;50.966;7.094;2022-11-20T02:31:45;11.80;44.10
11989;DHT22;6054;50.966;7.094;2022-11-20T02:34:12;11.90;43.80
11989;DHT22;6054;50.966;7.094;2022-11-20T02:36:40;11.80;43.70
11989;DHT22;6054;50.966;7.094;2022-11-20T02:39:10;11.80;44.10
11989;DHT22;6054;50.966;7.094;2022-11-20T02:41:38;11.80;44.00
11989;DHT22;6054;50.966;7.094;2022-11-20T02:44:06;11.80;43.60
11989;DHT22;6054;50.966;7.094;2022-11-20T02:46:33;11.80;43.60
11989;DHT22;6054;50.966;7.094;2022-11-20T02:49:01;11.80;44.20
11989;DHT22;6054;50.966;7.094;2022-11-20T02:51:28;11.80;44.20
11989;DHT22;6054;50.966;7.094;2022-11-20T02:53:55;11.80;43.70
11989;DHT22;6054;50.966;7.094;2022-11-20T02:56:23;11.80;43.80
11989;DHT22;6054;50.966;7.094;2022-11-20T02:58:50;11.80;44.20
11989;DHT22;6054;50.966;7.094;2022-11-20T03:06:27;11.80;44.20
11989;DHT22;6054;50.966;7.094;2022-11-20T03:08:54;12.00;43.20
11989;DHT22;6054;50.966;7.094;2022-11-20T03:11:22;11.70;43.40
11989;DHT22;6054;50.966;7.094;2022-11-20T03:13:51;11.70;43.90
11989;DHT22;6054;50.966;7.094;2022-11-20T03:16:20;11.70;43.20
11989;DHT22;6054;50.966;7.094;2022-11-20T03:18:47;11.70;44.20
11989;DHT22;6054;50.966;7.094;2022-11-20T03:21:14;11.70;43.80
11989;DHT22;6054;50.966;7.094;2022-11-20T03:23:41;11.70;44.10
11989;DHT22;6054;50.966;7.094;2022-11-20T03:26:11;11.70;44.00
11989;DHT22;6054;50.966;7.094;2022-11-20T03:28:39;11.80;44.60
11989;DHT22;6054;50.966;7.094;2022-11-20T03:31:07;11.70;43.40
11989;DHT22;6054;50.966;7.094;2022-11-20T03:33:34;11.70;44.60
11989;DHT22;6054;50.966;7.094;2022-11-20T03:36:03;11.70;44.00
11989;DHT22;6054;50.966;7.094;2022-11-20T03:38:30;11.90;44.60
11989;DHT22;6054;50.966;7.094;2022-11-20T03:41:02;11.60;44.50
11989;DHT22;6054;50.966;7.094;2022-11-20T03:43:29;12.00;44.90
11989;DHT22;6054;50.966;7.094;2022-11-20T03:45:59;11.70;44.40
11989;DHT22;6054;50.966;7.094;2022-11-20T03:48:26;11.70;44.80
11989;DHT22;6054;50.966;7.094;2022-11-20T03:51:05;11.70;44.70
11989;DHT22;6054;50.966;7.094;2022-11-20T03:53:32;11.70;44.90
11989;DHT22;6054;50.966;7.094;2022-11-20T03:55:59;11.70;44.40
11989;DHT22;6054;50.966;7.094;2022-11-20T03:58:26;11.70;44.30
11989;DHT22;6054;50.966;7.094;2022-11-20T04:00:53;11.70;44.50
11989;DHT22;6054;50.966;7.094;2022-11-20T04:03:21;11.70;44.20
11989;DHT22;6054;50.966;7.094;2022-11-20T04:05:47;11.70;44.50
11989;DHT22;6054;50.966;7.094;2022-11-20T04:08:14;11.70;44.40
11989;DHT22;6054;50.966;7.094;2022-11-20T04:10:41;11.80;44.40
11989;DHT22;6054;50.966;7.094;2022-11-20T04:13:08;11.70;44.70
11989;DHT22;6054;50.966;7.094;2022-11-20T04:15:34;11.70;44.40
11989;DHT22;6054;50.966;7.094;2022-11-20T04:18:02;12.00;44.80
11989;DHT22;6054;50.966;7.094;2022-11-20T04:20:30;11.80;44.60
11989;DHT22;6054;50.966;7.094;2022-11-20T04:22:57;11.70;44.50
11989;DHT22;6054;50.966;7.094;2022-11-20T04:25:23;11.80;44.00
11989;DHT22;6054;50.966;7.094;2022-11-20T04:27:50;11.80;44.50
11989;DHT22;6054;50.966;7.094;2022-11-20T04:30:17;11.70;44.20
11989;DHT22;6054;50.966;7.094;2022-11-20T04:32:44;11.80;44.40
11989;DHT22;6054;50.966;7.094;2022-11-20T04:35:10;11.70;44.20
11989;DHT22;6054;50.966;7.094;2022-11-20T04:37:41;11.70;44.40
11989;DHT22;6054;50.966;7.094;2022-11-20T04:40:08;11.70;44.50
11989;DHT22;6054;50.966;7.094;2022-11-20T04:42:35;11.70;44.80
11989;DHT22;6054;50.966;7.094;2022-11-20T04:45:02;11.60;44.50
11989;DHT22;6054;50.966;7.094;2022-11-20T04:47:29;11.70;44.40
11989;DHT22;6054;50.966;7.094;2022-11-20T04:49:55;11.60;44.30
11989;DHT22;6054;50.966;7.094;2022-11-20T04:52:22;11.60;44.20
11989;DHT22;6054;50.966;7.094;2022-11-20T04:54:50;11.60;44.60
11989;DHT22;6054;50.966;7.094;2022-11-20T04:57:19;11.60;44.70
11989;DHT22;6054;50.966;7.094;2022-11-20T04:59:45;11.60;44.50
11989;DHT22;6054;50.966;7.094;2022-11-20T05:02:12;11.90;45.00
11989;DHT22;6054;50.966;7.094;2022-11-20T05:04:39;11.70;45.20
11989;DHT22;6054;50.966;7.094;2022-11-20T05:07:06;11.60;44.90
11989;DHT22;6054;50.966;7.094;2022-11-20T05:09:32;11.60;45.10
11989;DHT22;6054;50.966;7.094;2022-11-20T05:12:00;11.60;45.10
11989;DHT22;6054;50.966;7.094;2022-11-20T05:14:27;11.50;45.20
11989;DHT22;6054;50.966;7.094;2022-11-20T05:16:54;11.60;45.30
11989;DHT22;6054;50.966;7.094;2022-11-20T05:19:21;11.60;45.50
11989;DHT22;6054;50.966;7.094;2022-11-20T05:21:47;11.60;45.50
11989;DHT22;6054;50.966;7.094;2022-11-20T05:24:14;11.60;45.60
11989;DHT22;6054;50.966;7.094;2022-11-20T05:26:41;11.90;45.80
11989;DHT22;6054;50.966;7.094;2022-11-20T05:29:11;11.80;45.80
11989;DHT22;6054;50.966;7.094;2022-11-20T05:31:39;11.60;46.00
11989;DHT22;6054;50.966;7.094;2022-11-20T05:34:07;11.70;46.50
11989;DHT22;6054;50.966;7.094;2022-11-20T05:36:33;11.70;46.20
11989;DHT22;6054;50.966;7.094;2022-11-20T05:39:00;11.70;46.00
11989;DHT22;6054;50.966;7.094;2022-11-20T05:41:27;11.70;46.10
11989;DHT22;6054;50.966;7.094;2022-11-20T05:43:56;11.70;46.30
11989;DHT22;6054;50.966;7.094;2022-11-20T05:46:24;11.70;46.60
11989;DHT22;6054;50.966;7.094;2022-11-20T05:48:51;11.80;46.40
11989;DHT22;6054;50.966;7.094;2022-11-20T05:51:19;12.00;46.10
11989;DHT22;6054;50.966;7.094;2022-11-20T05:53:46;11.70;46.30
11989;DHT22;6054;50.966;7.094;2022-11-20T05:56:15;11.70;46.10
11989;DHT22;6054;50.966;7.094;2022-11-20T05:58:42;11.70;46.60
11989;DHT22;6054;50.966;7.094;2022-11-20T06:01:11;12.00;46.60
11989;DHT22;6054;50.966;7.094;2022-11-20T06:03:41;11.70;46.60
11989;DHT22;6054;50.966;7.094;2022-11-20T06:06:11;11.70;46.60
11989;DHT22;6054;50.966;7.094;2022-11-20T06:08:38;11.70;46.70
11989;DHT22;6054;50.966;7.094;2022-11-20T06:11:06;11.70;46.30
11989;DHT22;6054;50.966;7.094;2022-11-20T06:13:33;11.70;46.80
11989;DHT22;6054;50.966;7.094;2022-11-20T06:16:00;11.70;46.90
11989;DHT22;6054;50.966;7.094;2022-11-20T06:18:28;11.80;47.00
11989;DHT22;6054;50.966;7.094;2022-11-20T06:21:03;11.70;47.00
11989;DHT22;6054;50.966;7.094;2022-11-20T06:23:32;11.70;46.90
11989;DHT22;6054;50.966;7.094;2022-11-20T06:26:01;11.70;46.90
11989;DHT22;6054;50.966;7.094;2022-11-20T06:28:29;11.70;46.90
11989;DHT22;6054;50.966;7.094;2022-11-20T06:30:55;11.70;46.30
11989;DHT22;6054;50.966;7.094;2022-11-20T06:33:22;11.70;46.10
11989;DHT22;6054;50.966;7.094;2022-11-20T06:35:49;11.70;46.50
11989;DHT22;6054;50.966;7.094;2022-11-20T06:38:17;11.70;46.40
11989;DHT22;6054;50.966;7.094;2022-11-20T06:40:44;11.70;46.50
11989;DHT22;6054;50.966;7.094;2022-11-20T06:43:11;11.70;46.50
11989;DHT22;6054;50.966;7.094;2022-11-20T06:45:37;12.00;47.00
11989;DHT22;6054;50.966;7.094;2022-11-20T06:48:05;11.70;46.20
11989;DHT22;6054;50.966;7.094;2022-11-20T06:50:31;11.70;46.10
11989;DHT22;6054;50.966;7.094;2022-11-20T06:53:01;11.70;46.40
11989;DHT22;6054;50.966;7.094;2022-11-20T06:55:30;11.70;46.90
11989;DHT22;6054;50.966;7.094;2022-11-20T06:57:58;11.60;46.70
11989;DHT22;6054;50.966;7.094;2022-11-20T07:00:24;11.60;46.50
11989;DHT22;6054;50.966;7.094;2022-11-20T07:02:51;11.60;46.40
11989;DHT22;6054;50.966;7.094;2022-11-20T07:05:18;11.60;46.40
11989;DHT22;6054;50.966;7.094;2022-11-20T07:07:45;11.60;46.50
11989;DHT22;6054;50.966;7.094;2022-11-20T07:10:12;11.60;46.00
11989;DHT22;6054;50.966;7.094;2022-11-20T07:12:40;11.70;46.60
11989;DHT22;6054;50.966;7.094;2022-11-20T07:15:07;11.60;46.60
11989;DHT22;6054;50.966;7.094;2022-11-20T07:17:34;11.70;47.10
11989;DHT22;6054;50.966;7.094;2022-11-20T07:20:01;11.60;46.50
11989;DHT22;6054;50.966;7.094;2022-11-20T07:22:27;11.60;46.60
11989;DHT22;6054;50.966;7.094;2022-11-20T07:24:54;11.60;46.40
11989;DHT22;6054;50.966;7.094;2022-11-20T07:27:21;11.70;46.70
11989;DHT22;6054;50.966;7.094;2022-11-20T07:29:49;11.60;46.80
11989;DHT22;6054;50.966;7.094;2022-11-20T07:32:16;11.60;46.80
11989;DHT22;6054;50.966;7.094;2022-11-20T07:34:43;11.60;46.80
11989;DHT22;6054;50.966;7.094;2022-11-20T07:37:09;11.60;46.90
11989;DHT22;6054;50.966;7.094;2022-11-20T07:39:36;11.60;46.70
11989;DHT22;6054;50.966;7.094;2022-11-20T07:42:03;11.60;47.10
11989;DHT22;6054;50.966;7.094;2022-11-20T07:44:29;11.60;47.20
11989;DHT22;6054;50.966;7.094;2022-11-20T07:46:58;11.60;46.80
11989;DHT22;6054;50.966;7.094;2022-11-20T07:49:24;11.90;47.20
11989;DHT22;6054;50.966;7.094;2022-11-20T07:51:51;11.60;47.00
11989;DHT22;6054;50.966;7.094;2022-11-20T07:54:19;11.70;47.40
11989;DHT22;6054;50.966;7.094;2022-11-20T07:56:46;11.60;47.30
11989;DHT22;6054;50.966;7.094;2022-11-20T07:59:12;11.70;46.80
11989;DHT22;6054;50.966;7.094;2022-11-20T08:01:40;11.70;47.30
11989;DHT22;6054;50.966;7.094;2022-11-20T08:04:08;11.70;47.60
11989;DHT22;6054;50.966;7.094;2022-11-20T08:06:35;11.70;47.90
11989;DHT22;6054;50.966;7.094;2022-11-20T08:09:02;11.70;47.90
11989;DHT22;6054;50.966;7.094;2022-11-20T08:11:29;11.80;48.00
11989;DHT22;6054;50.966;7.094;2022-11-20T08:14:13;12.00;48.20
11989;DHT22;6054;50.966;7.094;2022-11-20T08:16:42;11.70;47.60
11989;DHT22;6054;50.966;7.094;2022-11-20T08:19:11;11.80;48.20
11989;DHT22;6054;50.966;7.094;2022-11-20T08:21:38;11.80;47.80
11989;DHT22;6054;50.966;7.094;2022-11-20T08:24:06;12.10;48.30
11989;DHT22;6054;50.966;7.094;2022-11-20T08:26:33;11.80;47.80
11989;DHT22;6054;50.966;7.094;2022-11-20T08:29:00;11.90;47.80
11989;DHT22;6054;50.966;7.094;2022-11-20T08:31:27;12.00;47.70
11989;DHT22;6054;50.966;7.094;2022-11-20T08:33:54;11.90;47.70
11989;DHT22;6054;50.966;7.094;2022-11-20T08:36:23;12.10;47.70
11989;DHT22;6054;50.966;7.094;2022-11-20T08:38:52;11.90;48.00
11989;DHT22;6054;50.966;7.094;2022-11-20T08:41:19;11.90;48.00
11989;DHT22;6054;50.966;7.094;2022-11-20T08:43:53;11.90;48.00
11989;DHT22;6054;50.966;7.094;2022-11-20T08:46:22;12.20;48.20
11989;DHT22;6054;50.966;7.094;2022-11-20T08:48:49;11.90;47.30
11989;DHT22;6054;50.966;7.094;2022-11-20T08:51:16;12.30;47.10
11989;DHT22;6054;50.966;7.094;2022-11-20T08:53:44;12.00;47.60
11989;DHT22;6054;50.966;7.094;2022-11-20T08:56:12;12.00;47.10
11989;DHT22;6054;50.966;7.094;2022-11-20T08:58:39;12.00;47.10
11989;DHT22;6054;50.966;7.094;2022-11-20T09:03:33;12.00;47.60
11989;DHT22;6054;50.966;7.094;2022-11-20T09:06:01;12.00;47.80
11989;DHT22;6054;50.966;7.094;2022-11-20T09:08:29;12.10;47.60
11989;DHT22;6054;50.966;7.094;2022-11-20T09:10:58;12.10;47.10
11989;DHT22;6054;50.966;7.094;2022-11-20T09:13:26;12.10;47.30
11989;DHT22;6054;50.966;7.094;2022-11-20T09:15:54;12.10;47.10
11989;DHT22;6054;50.966;7.094;2022-11-20T09:18:21;12.10;47.10
11989;DHT22;6054;50.966;7.094;2022-11-20T09:20:48;12.10;46.80
11989;DHT22;6054;50.966;7.094;2022-11-20T09:23:15;12.10;46.50
11989;DHT22;6054;50.966;7.094;2022-11-20T09:25:42;12.10;47.10
11989;DHT22;6054;50.966;7.094;2022-11-20T09:28:10;12.20;46.60
11989;DHT22;6054;50.966;7.094;2022-11-20T09:30:37;12.10;46.40
11989;DHT22;6054;50.966;7.094;2022-11-20T09:33:05;12.30;46.70
11989;DHT22;6054;50.966;7.094;2022-11-20T09:35:32;12.10;47.00
11989;DHT22;6054;50.966;7.094;2022-11-20T09:38:04;12.10;47.10
11989;DHT22;6054;50.966;7.094;2022-11-20T09:40:31;12.10;47.20
11989;DHT22;6054;50.966;7.094;2022-11-20T09:43:01;12.20;47.20
11989;DHT22;6054;50.966;7.094;2022-11-20T09:45:50;12.20;47.40
11989;DHT22;6054;50.966;7.094;2022-11-20T09:48:50;12.20;47.90
11989;DHT22;6054;50.966;7.094;2022-11-20T09:51:26;12.20;47.30
11989;DHT22;6054;50.966;7.094;2022-11-20T09:54:05;12.40;47.30
11989;DHT22;6054;50.966;7.094;2022-11-20T09:56:34;12.30;47.30
11989;DHT22;6054;50.966;7.094;2022-11-20T09:59:06;12.30;47.00
11989;DHT22;6054;50.966;7.094;2022-11-20T10:01:36;12.30;46.60
11989;DHT22;6054;50.966;7.094;2022-11-20T10:04:10;12.40;46.80
11989;DHT22;6054;50.966;7.094;2022-11-20T10:06:43;12.40;46.60
11989;DHT22;6054;50.966;7.094;2022-11-20T10:09:18;12.40;46.50
11989;DHT22;6054;50.966;7.094;2022-11-20T10:11:54;12.40;46.60
11989;DHT22;6054;50.966;7.094;2022-11-20T10:14:30;12.40;46.60
11989;DHT22;6054;50.966;7.094;2022-11-20T10:17:03;12.40;46.60
11989;DHT22;6054;50.966;7.094;2022-11-20T10:19:50;12.50;46.30
11989;DHT22;6054;50.966;7.094;2022-11-20T10:22:35;12.50;46.40
11989;DHT22;6054;50.966;7.094;2022-11-20T10:25:08;12.40;46.40
11989;DHT22;6054;50.966;7.094;2022-11-20T10:30:39;12.50;46.40
11989;DHT22;6054;50.966;7.094;2022-11-20T10:33:14;12.50;46.40
11989;DHT22;6054;50.966;7.094;2022-11-20T10:35:44;12.60;46.50
11989;DHT22;6054;50.966;7.094;2022-11-20T10:38:17;12.60;46.40
11989;DHT22;6054;50.966;7.094;2022-11-20T10:40:47;12.60;46.50
11989;DHT22;6054;50.966;7.094;2022-11-20T10:43:18;12.50;46.30
11989;DHT22;6054;50.966;7.094;2022-11-20T10:45:50;12.50;46.20
11989;DHT22;6054;50.966;7.094;2022-11-20T10:48:23;12.60;46.50
11989;DHT22;6054;50.966;7.094;2022-11-20T10:51:07;12.60;46.50
11989;DHT22;6054;50.966;7.094;2022-11-20T10:53:44;12.60;46.60
11989;DHT22;6054;50.966;7.094;2022-11-20T10:56:17;12.60;46.60
11989;DHT22;6054;50.966;7.094;2022-11-20T10:58:52;12.60;46.70
11989;DHT22;6054;50.966;7.094;2022-11-20T11:01:24;12.80;46.90
11989;DHT22;6054;50.966;7.094;2022-11-20T11:03:55;12.60;46.10
11989;DHT22;6054;50.966;7.094;2022-11-20T11:06:27;12.60;46.50
11989;DHT22;6054;50.966;7.094;2022-11-20T11:08:57;12.60;46.70
11989;DHT22;6054;50.966;7.094;2022-11-20T11:11:27;12.60;46.70
11989;DHT22;6054;50.966;7.094;2022-11-20T11:14:04;12.60;46.60
11989;DHT22;6054;50.966;7.094;2022-11-20T11:16:31;12.60;46.50
11989;DHT22;6054;50.966;7.094;2022-11-20T11:19:05;12.70;45.80
11989;DHT22;6054;50.966;7.094;2022-11-20T11:21:32;12.90;46.70
11989;DHT22;6054;50.966;7.094;2022-11-20T11:24:01;12.70;46.40
11989;DHT22;6054;50.966;7.094;2022-11-20T11:26:29;12.70;46.50
11989;DHT22;6054;50.966;7.094;2022-11-20T11:28:57;12.70;46.30
11989;DHT22;6054;50.966;7.094;2022-11-20T11:31:25;12.90;46.80
11989;DHT22;6054;50.966;7.094;2022-11-20T11:34:03;12.70;46.30
11989;DHT22;6054;50.966;7.094;2022-11-20T11:36:32;12.70;46.60
11989;DHT22;6054;50.966;7.094;2022-11-20T11:39:01;12.90;46.70
11989;DHT22;6054;50.966;7.094;2022-11-20T11:41:31;12.70;46.70
11989;DHT22;6054;50.966;7.094;2022-11-20T11:44:03;13.00;46.90
11989;DHT22;6054;50.966;7.094;2022-11-20T11:46:59;12.80;46.60
11989;DHT22;6054;50.966;7.094;2022-11-20T11:49:26;12.80;46.50
11989;DHT22;6054;50.966;7.094;2022-11-20T11:52:01;12.80;46.40
11989;DHT22;6054;50.966;7.094;2022-11-20T11:54:34;12.80;47.00
11989;DHT22;6054;50.966;7.094;2022-11-20T11:57:07;12.80;47.00
11989;DHT22;6054;50.966;7.094;2022-11-20T11:59:45;12.90;46.30
11989;DHT22;6054;50.966;7.094;2022-11-20T12:02:23;12.90;47.10
11989;DHT22;6054;50.966;7.094;2022-11-20T12:04:57;12.90;47.10
11989;DHT22;6054;50.966;7.094;2022-11-20T12:07:38;13.10;47.00
11989;DHT22;6054;50.966;7.094;2022-11-20T12:10:15;12.90;47.10
11989;DHT22;6054;50.966;7.094;2022-11-20T12:12:46;13.00;46.90
11989;DHT22;6054;50.966;7.094;2022-11-20T12:15:23;12.90;46.70
11989;DHT22;6054;50.966;7.094;2022-11-20T12:17:51;12.90;47.10
11989;DHT22;6054;50.966;7.094;2022-11-20T12:20:19;13.00;44.30
11989;DHT22;6054;50.966;7.094;2022-11-20T12:22:56;13.00;45.30
11989;DHT22;6054;50.966;7.094;2022-11-20T12:25:28;13.00;46.90
11989;DHT22;6054;50.966;7.094;2022-11-20T12:31:08;13.00;46.90
11989;DHT22;6054;50.966;7.094;2022-11-20T12:34:09;13.00;46.70
11989;DHT22;6054;50.966;7.094;2022-11-20T12:36:48;13.00;47.10
11989;DHT22;6054;50.966;7.094;2022-11-20T12:39:26;13.10;47.00
11989;DHT22;6054;50.966;7.094;2022-11-20T12:42:27;13.00;47.00
11989;DHT22;6054;50.966;7.094;2022-11-20T12:45:41;13.00;47.00
11989;DHT22;6054;50.966;7.094;2022-11-20T12:48:34;13.00;47.00
11989;DHT22;6054;50.966;7.094;2022-11-20T12:51:15;13.10;46.80
11989;DHT22;6054;50.966;7.094;2022-11-20T12:53:52;12.90;46.90
11989;DHT22;6054;50.966;7.094;2022-11-20T12:56:29;12.90;46.90
11989;DHT22;6054;50.966;7.094;2022-11-20T12:59:10;13.00;47.20
11989;DHT22;6054;50.966;7.094;2022-11-20T13:01:47;13.20;47.10
11989;DHT22;6054;50.966;7.094;2022-11-20T13:04:27;13.00;47.10
11989;DHT22;6054;50.966;7.094;2022-11-20T13:06:56;13.00;47.20
11989;DHT22;6054;50.966;7.094;2022-11-20T13:09:24;13.00;46.90
11989;DHT22;6054;50.966;7.094;2022-11-20T13:12:01;13.10;47.30
11989;DHT22;6054;50.966;7.094;2022-11-20T13:14:33;13.00;47.30
11989;DHT22;6054;50.966;7.094;2022-11-20T13:17:05;13.10;47.10
11989;DHT22;6054;50.966;7.094;2022-11-20T13:22:57;13.20;47.70
11989;DHT22;6054;50.966;7.094;2022-11-20T13:25:25;13.20;47.10
11989;DHT22;6054;50.966;7.094;2022-11-20T13:27:54;13.20;47.60
11989;DHT22;6054;50.966;7.094;2022-11-20T13:30:23;13.20;47.00
11989;DHT22;6054;50.966;7.094;2022-11-20T13:32:52;13.40;47.70
11989;DHT22;6054;50.966;7.094;2022-11-20T13:35:30;13.30;47.30
11989;DHT22;6054;50.966;7.094;2022-11-20T13:38:03;13.30;47.30
11989;DHT22;6054;50.966;7.094;2022-11-20T13:40:31;13.50;47.90
11989;DHT22;6054;50.966;7.094;2022-11-20T13:43:14;13.30;47.30
11989;DHT22;6054;50.966;7.094;2022-11-20T13:45:42;13.50;47.80
11989;DHT22;6054;50.966;7.094;2022-11-20T13:48:20;13.40;47.20
11989;DHT22;6054;50.966;7.094;2022-11-20T13:50:56;13.40;47.60
11989;DHT22;6054;50.966;7.094;2022-11-20T13:53:37;13.40;47.70
11989;DHT22;6054;50.966;7.094;2022-11-20T13:56:17;13.30;47.70
11989;DHT22;6054;50.966;7.094;2022-11-20T13:58:59;13.30;47.70
11989;DHT22;6054;50.966;7.094;2022-11-20T14:01:30;13.40;47.40
11989;DHT22;6054;50.966;7.094;2022-11-20T14:03:58;13.60;47.60
11989;DHT22;6054;50.966;7.094;2022-11-20T14:06:27;13.30;47.50
11989;DHT22;6054;50.966;7.094;2022-11-20T14:08:55;13.30;47.70
11989;DHT22;6054;50.966;7.094;2022-11-20T14:11:23;13.40;47.40
11989;DHT22;6054;50.966;7.094;2022-11-20T14:13:56;13.40;47.70
11989;DHT22;6054;50.966;7.094;2022-11-20T14:16:24;13.40;47.70
11989;DHT22;6054;50.966;7.094;2022-11-20T14:18:51;13.40;47.80
11989;DHT22;6054;50.966;7.094;2022-11-20T14:21:26;13.70;47.90
11989;DHT22;6054;50.966;7.094;2022-11-20T14:23:54;13.50;48.00
11989;DHT22;6054;50.966;7.094;2022-11-20T14:26:23;13.60;47.30
11989;DHT22;6054;50.966;7.094;2022-11-20T14:28:51;13.60;47.30
11989;DHT22;6054;50.966;7.094;2022-11-20T14:31:24;13.60;47.40
11989;DHT22;6054;50.966;7.094;2022-11-20T14:33:52;13.60;47.50
11989;DHT22;6054;50.966;7.094;2022-11-20T14:36:21;13.60;47.80
11989;DHT22;6054;50.966;7.094;2022-11-20T14:38:49;13.60;47.60
11989;DHT22;6054;50.966;7.094;2022-11-20T14:41:18;13.60;47.50
11989;DHT22;6054;50.966;7.094;2022-11-20T14:43:47;13.60;47.80
11989;DHT22;6054;50.966;7.094;2022-11-20T14:46:16;13.70;47.50
11989;DHT22;6054;50.966;7.094;2022-11-20T14:48:47;13.60;47.60
11989;DHT22;6054;50.966;7.094;2022-11-20T14:51:28;13.60;47.30
11989;DHT22;6054;50.966;7.094;2022-11-20T14:53:56;13.60;48.00
11989;DHT22;6054;50.966;7.094;2022-11-20T14:56:24;13.60;45.90
11989;DHT22;6054;50.966;7.094;2022-11-20T14:58:57;13.70;46.80
11989;DHT22;6054;50.966;7.094;2022-11-20T15:04:00;13.60;48.30
11989;DHT22;6054;50.966;7.094;2022-11-20T15:06:27;13.60;47.80
11989;DHT22;6054;50.966;7.094;2022-11-20T15:08:55;13.60;47.60
11989;DHT22;6054;50.966;7.094;2022-11-20T15:11:27;13.60;47.10
11989;DHT22;6054;50.966;7.094;2022-11-20T15:13:55;13.60;48.40
11989;DHT22;6054;50.966;7.094;2022-11-20T15:16:23;13.60;47.80
11989;DHT22;6054;50.966;7.094;2022-11-20T15:18:52;13.70;48.10
11989;DHT22;6054;50.966;7.094;2022-11-20T15:21:20;13.70;48.20
11989;DHT22;6054;50.966;7.094;2022-11-20T15:23:50;13.80;48.20
11989;DHT22;6054;50.966;7.094;2022-11-20T15:26:23;13.80;48.50
11989;DHT22;6054;50.966;7.094;2022-11-20T15:28:51;13.90;48.10
11989;DHT22;6054;50.966;7.094;2022-11-20T15:31:20;13.80;46.70
11989;DHT22;6054;50.966;7.094;2022-11-20T15:33:48;13.80;48.30
11989;DHT22;6054;50.966;7.094;2022-11-20T15:36:16;14.00;48.60
11989;DHT22;6054;50.966;7.094;2022-11-20T15:38:43;13.70;48.60
11989;DHT22;6054;50.966;7.094;2022-11-20T15:41:10;13.70;48.70
11989;DHT22;6054;50.966;7.094;2022-11-20T15:43:36;13.70;48.80
11989;DHT22;6054;50.966;7.094;2022-11-20T15:46:06;13.70;49.10
11989;DHT22;6054;50.966;7.094;2022-11-20T15:48:36;13.70;50.30
11989;DHT22;6054;50.966;7.094;2022-11-20T15:51:07;13.70;49.70
11989;DHT22;6054;50.966;7.094;2022-11-20T15:53:40;13.70;50.00
11989;DHT22;6054;50.966;7.094;2022-11-20T15:56:11;13.70;50.30
11989;DHT22;6054;50.966;7.094;2022-11-20T15:58:38;13.60;50.50
11989;DHT22;6054;50.966;7.094;2022-11-20T16:01:05;13.60;50.00
11989;DHT22;6054;50.966;7.094;2022-11-20T16:03:31;13.60;50.40
11989;DHT22;6054;50.966;7.094;2022-11-20T16:05:58;13.60;50.10
11989;DHT22;6054;50.966;7.094;2022-11-20T16:08:25;13.60;50.70
11989;DHT22;6054;50.966;7.094;2022-11-20T16:10:53;13.60;50.70
11989;DHT22;6054;50.966;7.094;2022-11-20T16:13:20;13.60;50.50
11989;DHT22;6054;50.966;7.094;2022-11-20T16:16:06;13.50;51.00
11989;DHT22;6054;50.966;7.094;2022-11-20T16:18:34;13.50;51.90
11989;DHT22;6054;50.966;7.094;2022-11-20T16:21:01;13.50;51.20